CDT,Max TemperatureF,Mean TemperatureF,Min TemperatureF,Max Dew PointF,MeanDew PointF,Min DewpointF,Max Humidity, Mean Humidity, Min Humidity, Max Sea Level PressureIn, Mean Sea Level PressureIn, Min Sea Level PressureIn, Max VisibilityMiles, Mean VisibilityMiles, Min VisibilityMiles, Max Wind SpeedMPH, Mean Wind SpeedMPH, Max Gust SpeedMPH,PrecipitationIn, CloudCover, Events, WindDirDegrees
2011-10-1,68,54,39,37,35,30,81,55,30,30.20,30.12,30.03,10,10,10,23,12,30,0.00,0,,161
2011-10-2,82,64,46,50,41,36,71,49,23,30.06,30.03,29.99,10,10,4,18,9,22,0.00,0,,164
2011-10-3,82,68,55,45,41,37,63,41,21,30.07,30.05,30.03,10,10,10,21,9,28,0.00,0,,155
2011-10-4,84,70,57,45,42,37,55,37,25,30.05,30.00,29.93,10,10,10,21,9,26,0.00,0,Rain,152
2011-10-5,87,73,59,48,45,43,59,40,22,29.93,29.91,29.88,10,10,7,22,10,30,0.00,0,,148
2011-10-6,80,68,57,43,40,37,55,36,23,29.94,29.89,29.81,10,10,10,26,12,37,0.00,0,,141
2011-10-7,78,72,64,54,44,30,50,40,23,29.80,29.66,29.55,10,10,10,39,26,50,0.00,2,,170
2011-10-8,68,60,51,46,43,34,77,58,36,30.07,29.90,29.69,10,10,7,20,13,25,0.00,2,,218
2011-10-9,57,50,42,52,45,37,88,78,67,30.27,30.18,30.04,10,10,7,13,2,18,0.01,3,Rain,77
2011-10-10,62,56,50,57,51,46,94,82,68,30.02,29.88,29.77,10,10,10,22,11,31,0.03,3,Rain,152
2011-10-11,75,60,46,50,46,39,93,64,27,29.75,29.72,29.69,10,10,10,16,7,22,0.00,0,,174
2011-10-12,64,58,51,55,51,46,94,79,59,29.69,29.66,29.63,10,10,2,21,4,23,0.55,4,Rain-Thunderstorm,183
2011-10-13,55,47,39,45,41,37,93,79,67,29.68,29.66,29.64,10,10,10,15,8,21,0.00,4,,301
2011-10-14,50,42,35,37,36,34,100,80,58,29.79,29.73,29.67,10,10,10,24,9,38,0.00,6,,286
2011-10-15,53,44,35,37,34,30,100,76,44,29.81,29.79,29.76,10,10,10,22,7,29,0.00,3,,266
2011-10-16,48,42,35,36,30,23,87,64,40,29.82,29.78,29.75,10,10,10,34,15,44,0.00,3,,268
2011-10-17,51,42,33,32,29,27,81,65,38,29.93,29.83,29.78,10,10,10,22,14,31,0.00,1,,293
2011-10-18,46,38,30,32,27,19,86,67,40,30.10,30.03,29.93,10,10,10,20,11,28,0.00,6,,322
2011-10-19,46,37,28,36,29,23,93,79,57,30.22,30.17,30.13,10,10,10,10,3,16,0.00,6,,355
2011-10-20,53,36,19,43,28,18,100,78,38,30.12,30.05,29.96,10,8,1,0,0,,0.00,1,,-1
2011-10-21,55,42,28,37,31,25,93,70,44,30.04,29.94,29.87,10,9,2,16,5,21,0.00,0,,202
2011-10-22,60,42,24,39,32,21,93,67,39,30.09,29.99,29.79,10,8,3,18,4,25,0.00,1,,181
2011-10-23,57,46,35,43,36,30,100,76,38,29.86,29.78,29.74,10,10,7,16,5,22,0.00,2,,237
2011-10-24,55,40,26,41,32,25,100,78,47,30.03,29.98,29.89,10,10,10,5,0,,0.00,2,,20
2011-10-25,48,42,35,36,32,28,87,72,53,30.04,30.01,29.98,10,10,5,6,0,,0.00,3,,77
2011-10-26,51,40,28,36,31,27,93,75,47,30.11,30.06,30.01,10,10,10,14,1,20,0.00,4,Thunderstorm,285
2011-10-27,46,34,23,36,28,21,100,82,53,30.02,30.00,29.96,10,6,0,8,2,,0.00,4,Fog-Snow,150
2011-10-28,50,36,21,32,26,21,100,68,40,30.00,29.97,29.93,10,10,10,16,3,22,0.00,2,,271
2011-10-29,50,34,19,30,23,18,100,67,34,29.99,29.92,29.83,10,10,7,15,3,17,0.00,1,,159
2011-10-30,42,38,33,36,28,21,87,68,46,29.92,29.80,29.74,10,10,10,9,2,,0.00,7,,137
2011-10-31,51,38,24,32,29,25,100,68,41,29.95,29.84,29.70,10,10,7,23,6,30,0.00,4,,173